Time;durP1;ratioP1;P1;durP2;ratioP2;P2;SDS_P1;SDS_P2;PMS_P1;PMS_P2;Temp;Humidity;BMP_temperature;BMP_pressure;BME280_temperature;BME280_humidity;BME280_pressure;Samples;Min_cycle;Max_cycle;Signal;HPM_P1;HPM_P2
2022/07/31 00:00:30;;;;;;;13.25;7.35;;;16.70;72.30;;;;;;4126856;28;20031;-85
2022/07/31 00:02:51;;;;;;;13.15;7.05;;;16.70;72.40;;;;;;4118481;28;20125;-84
2022/07/31 00:05:13;;;;;;;12.10;7.20;;;16.70;72.40;;;;;;4130388;28;20482;-85
2022/07/31 00:07:34;;;;;;;12.43;7.05;;;16.70;72.50;;;;;;4128158;28;21501;-84
2022/07/31 00:09:55;;;;;;;13.95;7.53;;;16.80;72.50;;;;;;4129193;28;20109;-85
2022/07/31 00:12:13;;;;;;;12.30;6.45;;;16.70;72.30;;;;;;4118018;28;20047;-86
2022/07/31 00:14:15;;;;;;;10.40;6.53;;;16.70;72.20;;;;;;4127858;28;20235;-85
2022/07/31 00:16:35;;;;;;;10.50;5.90;;;16.70;72.20;;;;;;4130354;28;20053;-86
2022/07/31 00:18:56;;;;;;;8.10;5.35;;;16.70;72.10;;;;;;4115074;28;20046;-86
2022/07/31 00:21:17;;;;;;;8.95;6.32;;;16.70;72.10;;;;;;4141360;28;20117;-84
2022/07/31 00:23:39;;;;;;;12.40;6.82;;;16.70;72.10;;;;;;4122631;28;20049;-84
2022/07/31 00:26:00;;;;;;;12.90;6.63;;;16.70;72.10;;;;;;4111882;28;20046;-85
2022/07/31 00:28:21;;;;;;;13.07;7.13;;;16.70;72.20;;;;;;4125841;28;20046;-84
2022/07/31 00:30:41;;;;;;;10.40;6.28;;;16.70;72.30;;;;;;4126612;28;20037;-86
2022/07/31 00:33:02;;;;;;;11.48;7.07;;;16.70;72.20;;;;;;4129475;28;20042;-84
2022/07/31 00:35:23;;;;;;;22.45;7.93;;;16.70;72.30;;;;;;4117117;28;20034;-85
2022/07/31 00:37:44;;;;;;;20.55;8.02;;;16.70;72.10;;;;;;4117405;28;20031;-84
2022/07/31 00:40:06;;;;;;;30.45;12.45;;;16.70;72.10;;;;;;4127871;28;20035;-84
2022/07/31 00:42:26;;;;;;;41.08;16.27;;;16.70;72.10;;;;;;4116899;28;20142;-86
2022/07/31 00:44:48;;;;;;;28.98;13.27;;;16.70;72.20;;;;;;4127915;28;20066;-85
2022/07/31 00:47:09;;;;;;;24.65;12.02;;;16.70;72.20;;;;;;4129550;28;20608;-84
2022/07/31 00:49:29;;;;;;;22.90;11.00;;;16.60;72.10;;;;;;4130343;28;20061;-85
2022/07/31 00:51:50;;;;;;;21.77;9.35;;;16.60;72.10;;;;;;4131243;28;20062;-84
2022/07/31 00:53:53;;;;;;;24.17;10.20;;;16.60;72.10;;;;;;4133182;28;20041;-85
2022/07/31 00:55:56;;;;;;;19.15;10.05;;;16.60;72.10;;;;;;4124813;28;20038;-86
2022/07/31 00:57:57;;;;;;;19.90;9.50;;;16.60;72.30;;;;;;4113838;28;20888;-84
2022/07/31 00:59:57;;;;;;;21.67;9.02;;;16.60;72.20;;;;;;4129779;28;20027;-84
2022/07/31 01:01:59;;;;;;;15.73;8.07;;;16.60;72.40;;;;;;4130770;28;20418;-85
2022/07/31 01:03:59;;;;;;;12.80;8.27;;;16.60;72.30;;;;;;4117664;28;20045;-85
2022/07/31 01:06:00;;;;;;;17.38;6.97;;;16.60;72.30;;;;;;4115044;28;20062;-83
2022/07/31 01:08:01;;;;;;;14.38;6.78;;;16.60;72.30;;;;;;4129532;28;20599;-86
2022/07/31 01:10:06;;;;;;;18.67;7.50;;;16.50;72.30;;;;;;4114889;28;20030;-86
2022/07/31 01:12:32;;;;;;;14.65;7.38;;;16.50;72.30;;;;;;4115742;28;20390;-86
2022/07/31 01:15:06;;;;;;;9.32;5.60;;;16.50;72.30;;;;;;4131173;28;20046;-86
2022/07/31 01:17:09;;;;;;;16.55;8.10;;;16.50;72.00;;;;;;4095305;28;20050;-85
2022/07/31 01:19:42;;;;;;;21.83;10.02;;;16.50;72.10;;;;;;4099687;28;20047;-85
2022/07/31 01:22:07;;;;;;;24.98;9.00;;;16.50;72.60;;;;;;4100017;28;20086;-86
2022/07/31 01:24:32;;;;;;;18.42;8.90;;;16.50;72.30;;;;;;4058926;29;20050;-86
2022/07/31 01:27:06;;;;;;;17.73;7.60;;;16.50;72.60;;;;;;4103433;28;20510;-86
2022/07/31 01:29:21;;;;;;;15.63;7.70;;;16.40;72.60;;;;;;4085108;29;20028;-86
2022/07/31 01:31:32;;;;;;;17.20;7.82;;;16.40;72.40;;;;;;4098887;28;20099;-85
2022/07/31 01:33:41;;;;;;;14.40;7.70;;;16.40;72.50;;;;;;4098923;28;20036;-85
2022/07/31 01:35:46;;;;;;;18.35;7.95;;;16.40;72.60;;;;;;4099459;28;20565;-85
2022/07/31 01:38:09;;;;;;;15.68;8.38;;;16.40;72.70;;;;;;4098202;28;20381;-85
2022/07/31 01:40:17;;;;;;;13.95;7.75;;;16.40;73.00;;;;;;4085542;29;20534;-85
2022/07/31 01:42:19;;;;;;;14.20;7.75;;;16.30;72.90;;;;;;4099532;28;20596;-85
2022/07/31 01:44:23;;;;;;;18.87;8.17;;;16.40;72.90;;;;;;4098224;28;20368;-85
2022/07/31 01:46:26;;;;;;;13.02;7.82;;;16.30;72.90;;;;;;4104153;28;20499;-86
2022/07/31 01:48:30;;;;;;;17.17;8.43;;;16.30;73.00;;;;;;4097265;28;20035;-85
2022/07/31 01:50:33;;;;;;;12.18;8.23;;;16.30;73.00;;;;;;4106923;28;20027;-85
2022/07/31 01:52:36;;;;;;;20.05;8.35;;;16.30;73.10;;;;;;4103451;28;20045;-85
2022/07/31 01:54:37;;;;;;;13.53;7.57;;;16.30;73.10;;;;;;4122847;28;20049;-84
2022/07/31 01:56:39;;;;;;;21.60;9.02;;;16.30;73.10;;;;;;4130591;28;20294;-85
2022/07/31 01:58:42;;;;;;;19.23;8.48;;;16.20;73.10;;;;;;4113814;28;20065;-85
2022/07/31 02:00:45;;;;;;;20.27;8.57;;;16.30;73.20;;;;;;4130598;28;20065;-85
2022/07/31 02:02:48;;;;;;;15.13;8.38;;;16.30;73.20;;;;;;4128670;28;20041;-85
2022/07/31 02:04:50;;;;;;;26.15;8.65;;;16.30;73.20;;;;;;4129613;28;20030;-85
2022/07/31 02:06:52;;;;;;;20.17;9.35;;;16.20;73.20;;;;;;4117143;28;20663;-85
2022/07/31 02:08:54;;;;;;;28.08;9.25;;;16.30;73.30;;;;;;4128824;28;20332;-84
2022/07/31 02:10:57;;;;;;;20.17;8.83;;;16.20;73.30;;;;;;4143876;28;20053;-85
2022/07/31 02:13:01;;;;;;;17.93;8.50;;;16.20;73.30;;;;;;4133071;28;20018;-85
2022/07/31 02:15:06;;;;;;;23.02;9.05;;;16.20;73.30;;;;;;4100342;28;20027;-85
2022/07/31 02:17:08;;;;;;;25.73;9.02;;;16.20;73.40;;;;;;4128179;28;20033;-84
2022/07/31 02:19:14;;;;;;;24.00;7.90;;;16.10;73.20;;;;;;4117642;28;20163;-86
2022/07/31 02:21:15;;;;;;;31.33;9.25;;;16.20;73.30;;;;;;4114561;28;20081;-85
2022/07/31 02:23:36;;;;;;;20.17;8.60;;;16.10;73.40;;;;;;4125510;28;20053;-84
2022/07/31 02:25:57;;;;;;;24.60;8.13;;;16.10;73.40;;;;;;4129526;28;20346;-84
2022/07/31 02:28:19;;;;;;;19.88;8.63;;;16.10;73.40;;;;;;4129397;28;20035;-84
2022/07/31 02:30:42;;;;;;;19.55;8.50;;;16.10;74.30;;;;;;4120860;28;20041;-85
2022/07/31 02:33:05;;;;;;;24.83;8.38;;;16.10;73.50;;;;;;4130716;28;20463;-85
2022/07/31 02:35:26;;;;;;;18.63;8.00;;;16.10;73.50;;;;;;4118901;28;21449;-84
2022/07/31 02:37:50;;;;;;;30.00;9.52;;;16.10;73.70;;;;;;4126329;28;20476;-85
2022/07/31 02:40:12;;;;;;;22.42;8.60;;;16.00;73.80;;;;;;4128646;28;20539;-85
2022/07/31 02:42:21;;;;;;;26.42;8.68;;;16.00;73.80;;;;;;4112381;28;20057;-85
2022/07/31 02:44:23;;;;;;;17.67;8.48;;;16.00;73.90;;;;;;4145876;28;20041;-85
2022/07/31 02:46:25;;;;;;;21.45;7.85;;;16.00;74.00;;;;;;4102946;28;20043;-86
2022/07/31 02:48:26;;;;;;;21.33;8.77;;;16.00;74.20;;;;;;4125236;28;20046;-84
2022/07/31 02:50:26;;;;;;;21.60;8.52;;;16.00;74.30;;;;;;4142824;28;20104;-85
2022/07/31 02:52:28;;;;;;;16.00;8.18;;;16.00;74.50;;;;;;4111578;28;20034;-84
2022/07/31 02:54:29;;;;;;;30.70;9.77;;;16.00;75.30;;;;;;4129563;28;20514;-85
2022/07/31 02:56:31;;;;;;;23.67;8.50;;;16.00;74.70;;;;;;4140665;28;20076;-85
2022/07/31 02:58:32;;;;;;;23.85;9.05;;;16.00;74.80;;;;;;4148686;28;20033;-85
2022/07/31 03:00:33;;;;;;;22.52;8.95;;;16.00;75.00;;;;;;4117554;28;20134;-85
2022/07/31 03:02:33;;;;;;;33.97;9.50;;;15.90;74.90;;;;;;4140669;28;20034;-84
2022/07/31 03:04:35;;;;;;;22.75;8.68;;;16.00;75.10;;;;;;4130069;28;20033;-84
2022/07/31 03:06:35;;;;;;;25.38;9.32;;;16.00;75.20;;;;;;4134045;28;20023;-85
2022/07/31 03:08:36;;;;;;;24.20;10.50;;;16.00;75.30;;;;;;4113389;28;20517;-84
2022/07/31 03:10:37;;;;;;;17.95;8.00;;;16.00;75.40;;;;;;4141967;28;20034;-85
2022/07/31 03:12:48;;;;;;;17.10;8.38;;;16.00;75.40;;;;;;4128949;28;20133;-86
2022/07/31 03:14:50;;;;;;;19.48;7.60;;;16.00;75.60;;;;;;4113048;28;20022;-85
2022/07/31 03:16:52;;;;;;;20.30;8.13;;;16.00;75.40;;;;;;4134079;28;20426;-85
2022/07/31 03:18:55;;;;;;;16.52;7.97;;;16.00;75.40;;;;;;4103743;28;20710;-85
2022/07/31 03:20:56;;;;;;;16.90;8.00;;;16.00;75.40;;;;;;4130292;28;20037;-86
2022/07/31 03:22:58;;;;;;;28.60;8.60;;;16.00;75.30;;;;;;4112043;28;20426;-85
2022/07/31 03:25:01;;;;;;;18.20;7.60;;;16.00;75.40;;;;;;4113123;28;20027;-86
2022/07/31 03:27:02;;;;;;;25.23;7.95;;;16.00;76.00;;;;;;4144351;28;20030;-86
2022/07/31 03:29:03;;;;;;;23.85;7.97;;;16.00;75.20;;;;;;4137529;28;20222;-85
2022/07/31 03:31:04;;;;;;;18.33;7.40;;;16.00;75.20;;;;;;4112386;28;20023;-86
2022/07/31 03:33:05;;;;;;;21.83;7.55;;;16.00;75.10;;;;;;4111670;28;20061;-85
2022/07/31 03:35:06;;;;;;;16.30;7.82;;;16.10;75.10;;;;;;4130177;28;20455;-85
2022/07/31 03:37:07;;;;;;;22.25;8.02;;;16.00;74.80;;;;;;4128359;28;20402;-85
2022/07/31 03:39:07;;;;;;;15.93;7.65;;;16.00;74.80;;;;;;4115972;28;20022;-86
2022/07/31 03:41:09;;;;;;;13.38;7.50;;;16.00;74.80;;;;;;4129740;28;20030;-85
2022/07/31 03:43:10;;;;;;;14.98;8.48;;;16.00;74.80;;;;;;4113849;28;20026;-85
2022/07/31 03:45:11;;;;;;;24.30;8.50;;;16.00;74.80;;;;;;4141353;28;20112;-86
2022/07/31 03:47:12;;;;;;;23.55;9.57;;;16.00;74.90;;;;;;4117279;28;20300;-84
2022/07/31 03:49:14;;;;;;;22.08;9.35;;;15.90;74.90;;;;;;4095004;28;20079;-84
2022/07/31 03:51:15;;;;;;;17.92;8.68;;;15.90;75.10;;;;;;4117266;28;20069;-87
2022/07/31 03:53:17;;;;;;;25.92;10.05;;;16.00;75.20;;;;;;4127189;28;20022;-85
2022/07/31 03:55:17;;;;;;;16.27;9.07;;;16.00;75.40;;;;;;4128667;28;20092;-84
2022/07/31 03:57:19;;;;;;;31.48;10.18;;;16.00;75.50;;;;;;4126556;28;20030;-85
2022/07/31 03:59:21;;;;;;;25.40;10.45;;;16.00;75.60;;;;;;4130167;28;20034;-84
2022/07/31 04:01:22;;;;;;;21.17;9.75;;;16.00;75.70;;;;;;4132814;28;20041;-85
2022/07/31 04:03:30;;;;;;;27.55;11.55;;;16.00;75.80;;;;;;4132283;28;20036;-85
2022/07/31 04:05:50;;;;;;;49.97;13.52;;;16.10;76.10;;;;;;4117565;28;20044;-85
2022/07/31 04:08:11;;;;;;;37.17;13.27;;;16.10;76.00;;;;;;4124788;28;20034;-85
2022/07/31 04:10:32;;;;;;;37.33;13.10;;;16.10;76.10;;;;;;4121231;28;20146;-86
2022/07/31 04:12:52;;;;;;;31.83;12.02;;;16.10;76.10;;;;;;4127211;28;20185;-84
2022/07/31 04:15:13;;;;;;;43.47;13.70;;;16.10;76.30;;;;;;4131834;28;20070;-85
2022/07/31 04:17:33;;;;;;;28.75;11.43;;;16.20;76.30;;;;;;4117605;28;20079;-85
2022/07/31 04:19:54;;;;;;;23.13;9.57;;;16.20;76.30;;;;;;4134735;28;20018;-84
2022/07/31 04:22:15;;;;;;;26.83;9.77;;;16.20;76.40;;;;;;4132778;28;20036;-83
2022/07/31 04:24:35;;;;;;;28.35;10.27;;;16.20;76.40;;;;;;4131665;28;20041;-85
2022/07/31 04:26:57;;;;;;;14.15;9.65;;;16.30;76.60;;;;;;4127336;28;20034;-85
2022/07/31 04:29:17;;;;;;;20.58;9.50;;;16.30;76.60;;;;;;4136024;28;20092;-84
2022/07/31 04:31:18;;;;;;;29.60;11.57;;;16.30;76.70;;;;;;4129243;28;20322;-85
2022/07/31 04:33:19;;;;;;;28.15;10.40;;;16.40;76.90;;;;;;4127719;28;20026;-85
2022/07/31 04:35:20;;;;;;;23.42;9.55;;;16.30;77.00;;;;;;4118617;28;20421;-84
2022/07/31 04:37:23;;;;;;;;;;;16.40;77.00;;;;;;4133098;28;20053;-85
2022/07/31 04:39:23;;;;;;;24.75;9.70;;;16.40;77.90;;;;;;4134163;28;20293;-85
2022/07/31 04:41:24;;;;;;;28.27;11.30;;;16.40;76.90;;;;;;4100858;28;20034;-86
2022/07/31 04:43:25;;;;;;;24.42;10.65;;;16.50;77.30;;;;;;4123444;28;20122;-85
2022/07/31 04:45:25;;;;;;;22.15;11.20;;;16.50;77.50;;;;;;4124423;28;20046;-85
2022/07/31 04:47:26;;;;;;;23.45;11.05;;;16.50;77.50;;;;;;4129232;28;20133;-85
2022/07/31 04:49:27;;;;;;;15.20;10.15;;;16.50;77.50;;;;;;4095178;28;20039;-86
2022/07/31 04:51:28;;;;;;;22.05;9.93;;;16.50;77.50;;;;;;4103928;28;20043;-86
2022/07/31 04:53:28;;;;;;;26.65;10.38;;;16.60;77.40;;;;;;4109934;28;20038;-86
2022/07/31 04:55:29;;;;;;;22.05;9.25;;;16.60;77.40;;;;;;4117413;28;20037;-87
2022/07/31 04:57:30;;;;;;;22.33;10.48;;;16.70;77.50;;;;;;4128664;28;20121;-87
2022/07/31 04:59:31;;;;;;;21.00;11.10;;;16.70;77.50;;;;;;4119312;28;20099;-87
2022/07/31 05:01:33;;;;;;;25.98;11.55;;;16.70;77.50;;;;;;4115042;28;20030;-86
2022/07/31 05:03:33;;;;;;;23.02;11.40;;;16.70;78.10;;;;;;4134759;28;20492;-86
2022/07/31 05:05:54;;;;;;;22.33;9.93;;;16.70;77.40;;;;;;4131027;28;20038;-86
2022/07/31 05:07:54;;;;;;;23.13;10.60;;;16.70;77.20;;;;;;4120064;28;20536;-87
2022/07/31 05:09:57;;;;;;;23.55;10.52;;;16.80;77.20;;;;;;4132213;28;20497;-85
2022/07/31 05:11:58;;;;;;;19.93;9.93;;;16.80;77.20;;;;;;4132437;28;20058;-87
2022/07/31 05:14:02;;;;;;;19.73;9.95;;;16.80;77.10;;;;;;4118097;28;20051;-86
2022/07/31 05:16:24;;;;;;;13.07;8.95;;;16.80;77.10;;;;;;4116128;28;20115;-85
2022/07/31 05:18:45;;;;;;;15.70;9.20;;;16.80;76.90;;;;;;4113421;28;20031;-86
2022/07/31 05:21:06;;;;;;;21.00;9.52;;;16.80;76.90;;;;;;4118670;28;20038;-86
2022/07/31 05:23:27;;;;;;;14.60;8.88;;;16.80;76.70;;;;;;4132168;28;20033;-86
2022/07/31 05:25:47;;;;;;;15.93;9.85;;;16.90;76.70;;;;;;4131808;28;20042;-85
2022/07/31 05:27:51;;;;;;;17.02;9.95;;;16.90;76.60;;;;;;4145689;28;20026;-86
2022/07/31 05:30:12;;;;;;;17.38;9.05;;;16.90;76.50;;;;;;4131187;28;20057;-87
2022/07/31 05:32:33;;;;;;;21.02;9.65;;;16.90;76.40;;;;;;4136649;28;20045;-86
2022/07/31 05:34:53;;;;;;;22.50;9.48;;;16.90;76.40;;;;;;4115184;28;20031;-85
2022/07/31 05:37:14;;;;;;;19.65;9.95;;;16.90;76.40;;;;;;4128871;28;20046;-87
2022/07/31 05:39:35;;;;;;;14.60;9.48;;;16.90;76.40;;;;;;4129206;28;20643;-86
2022/07/31 05:41:56;;;;;;;21.75;10.15;;;16.90;76.30;;;;;;4141543;28;20050;-85
2022/07/31 05:44:16;;;;;;;13.50;8.80;;;16.90;76.20;;;;;;4138476;28;20030;-86
2022/07/31 05:46:37;;;;;;;18.00;9.13;;;16.90;76.30;;;;;;4116296;28;20121;-86
2022/07/31 05:48:58;;;;;;;16.05;8.85;;;17.00;76.50;;;;;;4119917;28;20072;-86
2022/07/31 05:51:18;;;;;;;16.92;8.80;;;17.00;76.50;;;;;;4119003;28;20039;-86
2022/07/31 05:53:41;;;;;;;18.75;9.43;;;17.00;76.50;;;;;;4127161;28;20030;-87
2022/07/31 05:56:04;;;;;;;16.55;8.98;;;17.10;76.80;;;;;;4116442;28;20090;-85
2022/07/31 05:58:25;;;;;;;15.05;8.82;;;17.10;77.40;;;;;;4132942;28;20061;-87
2022/07/31 06:00:47;;;;;;;16.63;7.88;;;17.20;78.00;;;;;;4118863;28;20022;-87
2022/07/31 06:03:09;;;;;;;16.55;8.27;;;17.30;78.50;;;;;;4127497;28;20061;-86
2022/07/31 06:05:31;;;;;;;16.13;7.03;;;17.40;78.80;;;;;;4124973;28;20074;-87
2022/07/31 06:07:51;;;;;;;14.35;5.90;;;17.50;79.00;;;;;;4114557;28;20084;-86
2022/07/31 06:10:12;;;;;;;11.50;5.93;;;17.60;78.90;;;;;;4128598;28;20061;-86
2022/07/31 06:12:13;;;;;;;12.32;5.28;;;17.70;79.30;;;;;;4113936;28;20159;-87
2022/07/31 06:14:13;;;;;;;13.98;5.68;;;17.80;78.30;;;;;;4126211;28;20030;-87
2022/07/31 06:16:14;;;;;;;14.25;6.07;;;17.90;78.30;;;;;;4114529;28;20031;-86
2022/07/31 06:18:15;;;;;;;8.13;4.68;;;18.00;78.20;;;;;;4109388;28;20039;-87
2022/07/31 06:20:16;;;;;;;6.78;3.25;;;18.10;77.90;;;;;;4127739;28;20447;-87
2022/07/31 06:22:16;;;;;;;4.82;2.53;;;18.20;77.40;;;;;;4125497;28;20049;-87
2022/07/31 06:24:17;;;;;;;9.55;2.72;;;18.30;76.40;;;;;;4124504;28;20457;-87
2022/07/31 06:26:18;;;;;;;3.90;1.95;;;18.40;75.00;;;;;;4124867;28;20034;-86
2022/07/31 06:28:18;;;;;;;7.28;1.98;;;18.50;74.00;;;;;;4108896;28;20023;-86
2022/07/31 06:30:19;;;;;;;4.63;2.40;;;18.50;73.20;;;;;;4137875;28;20030;-87
2022/07/31 06:32:20;;;;;;;8.23;2.30;;;18.70;73.90;;;;;;4116123;28;20117;-86
2022/07/31 06:34:21;;;;;;;3.85;1.92;;;18.80;72.90;;;;;;4126599;28;20126;-86
2022/07/31 06:36:22;;;;;;;4.88;2.13;;;18.90;72.00;;;;;;4118031;28;20042;-86
2022/07/31 06:38:23;;;;;;;3.63;2.10;;;19.00;70.60;;;;;;4127057;28;20022;-86
2022/07/31 06:40:24;;;;;;;6.45;2.20;;;19.10;68.70;;;;;;4127593;28;20042;-86
2022/07/31 06:42:25;;;;;;;5.88;1.90;;;19.20;68.30;;;;;;4129679;28;20057;-87
2022/07/31 06:44:26;;;;;;;6.10;2.00;;;19.30;67.80;;;;;;4127616;28;20053;-87
2022/07/31 06:46:27;;;;;;;6.30;1.90;;;19.40;67.50;;;;;;4129471;28;20512;-86
2022/07/31 06:48:28;;;;;;;2.90;1.50;;;19.50;66.90;;;;;;4121603;28;20046;-86
2022/07/31 06:50:31;;;;;;;7.53;1.52;;;19.60;66.40;;;;;;4123698;28;20457;-86
2022/07/31 06:52:32;;;;;;;2.97;1.10;;;19.70;65.50;;;;;;4127461;28;20038;-84
2022/07/31 06:54:33;;;;;;;3.13;1.48;;;19.80;64.60;;;;;;4124103;28;20081;-86
2022/07/31 06:56:35;;;;;;;6.00;1.23;;;19.90;63.40;;;;;;4121239;28;20373;-86
2022/07/31 06:58:36;;;;;;;2.65;1.50;;;20.00;62.70;;;;;;4120896;28;20030;-86
2022/07/31 07:00:37;;;;;;;1.88;1.05;;;20.10;62.10;;;;;;4110236;28;20685;-86
2022/07/31 07:02:38;;;;;;;3.63;1.45;;;20.20;61.50;;;;;;4120488;28;20429;-85
2022/07/31 07:04:38;;;;;;;5.53;1.52;;;20.20;60.80;;;;;;4124036;28;20037;-85
2022/07/31 07:06:39;;;;;;;7.22;1.20;;;20.30;60.50;;;;;;4106207;28;20022;-86
2022/07/31 07:08:40;;;;;;;2.80;1.05;;;20.40;59.80;;;;;;4111898;28;20086;-86
2022/07/31 07:10:41;;;;;;;2.45;1.27;;;20.40;59.10;;;;;;4112461;28;20821;-86
2022/07/31 07:12:42;;;;;;;1.92;1.10;;;20.50;58.90;;;;;;4111960;28;20019;-87
2022/07/31 07:14:43;;;;;;;3.03;1.00;;;20.60;58.90;;;;;;4130303;28;20031;-86
2022/07/31 07:16:43;;;;;;;2.78;1.33;;;20.60;58.90;;;;;;4110816;28;20101;-86
2022/07/31 07:18:44;;;;;;;8.85;3.58;;;20.60;58.70;;;;;;4128362;28;20018;-86
2022/07/31 07:20:45;;;;;;;7.93;4.10;;;20.70;58.70;;;;;;4129215;28;20038;-87
2022/07/31 07:22:46;;;;;;;4.78;1.80;;;20.80;58.40;;;;;;4108737;28;20030;-87
2022/07/31 07:24:46;;;;;;;3.17;1.27;;;20.80;58.40;;;;;;4124102;28;20105;-86
2022/07/31 07:26:47;;;;;;;2.80;1.20;;;20.90;58.20;;;;;;4125618;28;20030;-86
2022/07/31 07:28:48;;;;;;;3.17;1.20;;;20.90;57.60;;;;;;4125575;28;20030;-86
2022/07/31 07:30:49;;;;;;;5.40;1.20;;;21.00;57.50;;;;;;4109265;28;20438;-86
2022/07/31 07:32:49;;;;;;;3.88;1.38;;;21.10;57.30;;;;;;4113598;28;20343;-87
2022/07/31 07:34:50;;;;;;;1.75;0.85;;;21.10;57.30;;;;;;4116002;28;20035;-87
2022/07/31 07:36:51;;;;;;;2.83;1.05;;;21.20;57.00;;;;;;4120475;28;20031;-86
2022/07/31 07:38:53;;;;;;;1.85;0.73;;;21.30;56.00;;;;;;4124047;28;20058;-86
2022/07/31 07:40:54;;;;;;;4.97;1.20;;;21.30;55.50;;;;;;4125031;28;20026;-85
2022/07/31 07:42:55;;;;;;;4.75;1.75;;;21.40;55.20;;;;;;4129110;28;20137;-86
2022/07/31 07:44:56;;;;;;;7.93;1.20;;;21.40;54.40;;;;;;4126461;28;20030;-86
2022/07/31 07:46:57;;;;;;;2.13;0.85;;;21.40;54.30;;;;;;4128746;28;20058;-87
2022/07/31 07:48:58;;;;;;;4.85;0.80;;;21.40;54.10;;;;;;4111084;28;20022;-86
2022/07/31 07:51:01;;;;;;;3.60;1.30;;;21.50;54.20;;;;;;4113513;28;20030;-87
2022/07/31 07:53:02;;;;;;;4.43;1.30;;;21.50;53.90;;;;;;4126248;28;20030;-87
2022/07/31 07:55:04;;;;;;;7.32;1.30;;;21.50;54.00;;;;;;4108802;28;20038;-87
2022/07/31 07:57:05;;;;;;;2.92;1.00;;;21.60;54.20;;;;;;4111898;28;20018;-85
2022/07/31 07:59:06;;;;;;;3.38;1.40;;;21.60;54.10;;;;;;4109844;28;20053;-86
2022/07/31 08:01:07;;;;;;;2.80;1.20;;;21.70;53.40;;;;;;4113211;28;20039;-87
2022/07/31 08:03:08;;;;;;;4.05;1.00;;;21.70;53.50;;;;;;4111667;28;20030;-87
2022/07/31 08:05:11;;;;;;;3.25;1.02;;;21.70;53.60;;;;;;4129518;28;20143;-87
2022/07/31 08:07:12;;;;;;;3.72;1.30;;;21.80;53.50;;;;;;4123823;28;20025;-87
2022/07/31 08:09:14;;;;;;;3.33;1.20;;;21.90;53.50;;;;;;4111876;28;20086;-86
2022/07/31 08:11:26;;;;;;;2.28;1.13;;;21.90;53.40;;;;;;4112821;28;20611;-86
2022/07/31 08:13:46;;;;;;;2.80;0.98;;;22.00;53.60;;;;;;4123818;28;20042;-86
2022/07/31 08:16:07;;;;;;;3.65;1.75;;;22.10;53.90;;;;;;4124201;28;20046;-86
2022/07/31 08:18:28;;;;;;;3.50;1.50;;;22.10;53.50;;;;;;4112303;28;20114;-87
2022/07/31 08:20:49;;;;;;;2.67;1.63;;;22.20;53.10;;;;;;4128328;28;20039;-86
2022/07/31 08:23:10;;;;;;;2.15;1.27;;;22.30;53.20;;;;;;4127167;28;20037;-87
2022/07/31 08:25:31;;;;;;;7.88;1.40;;;22.40;53.20;;;;;;4130389;28;20042;-86
2022/07/31 08:27:54;;;;;;;6.63;1.70;;;22.50;53.30;;;;;;4125289;28;20030;-86
2022/07/31 08:30:15;;;;;;;3.33;1.50;;;22.50;53.10;;;;;;4124813;28;20038;-87
2022/07/31 08:32:37;;;;;;;6.05;1.48;;;22.60;53.00;;;;;;4128891;28;20075;-86
2022/07/31 08:34:58;;;;;;;3.55;1.40;;;22.70;53.20;;;;;;4113571;28;20110;-86
2022/07/31 08:37:21;;;;;;;6.10;1.30;;;22.80;52.80;;;;;;4128418;28;20123;-87
2022/07/31 08:39:42;;;;;;;;;;;22.80;52.70;;;;;;4114677;28;20054;-86
2022/07/31 08:42:07;;;;;;;3.90;1.70;;;22.80;52.70;;;;;;4110527;28;19996;-87
2022/07/31 08:44:31;;;;;;;6.55;1.33;;;22.90;53.40;;;;;;4136699;28;20097;-86
2022/07/31 08:46:53;;;;;;;;;;;23.00;53.30;;;;;;4114425;28;20026;-87
2022/07/31 08:48:56;;;;;;;5.05;1.40;;;23.10;52.30;;;;;;4139134;28;19979;-87
2022/07/31 08:50:59;;;;;;;9.40;2.30;;;23.20;53.10;;;;;;4114076;28;20102;-87
2022/07/31 08:53:00;;;;;;;5.35;1.42;;;23.30;51.80;;;;;;4126821;28;20585;-86
2022/07/31 08:55:06;;;;;;;3.03;1.10;;;23.30;51.50;;;;;;4128231;28;20728;-86
2022/07/31 08:57:10;;;;;;;2.17;1.20;;;23.40;51.30;;;;;;4111886;28;20070;-85
2022/07/31 08:59:11;;;;;;;3.03;1.00;;;23.40;50.40;;;;;;4125393;28;21891;-87
2022/07/31 09:01:12;;;;;;;3.38;1.20;;;23.40;50.30;;;;;;4124729;28;20120;-87
2022/07/31 09:03:16;;;;;;;4.43;1.17;;;23.50;50.30;;;;;;4126690;28;20434;-87
2022/07/31 09:05:19;;;;;;;5.18;1.30;;;23.50;49.90;;;;;;4118043;28;20027;-87
2022/07/31 09:07:20;;;;;;;2.22;0.80;;;23.60;49.60;;;;;;4110842;28;20100;-87
2022/07/31 09:09:21;;;;;;;3.17;0.90;;;23.60;48.80;;;;;;4113525;28;20510;-86
2022/07/31 09:11:22;;;;;;;2.80;0.93;;;23.60;48.10;;;;;;4121104;28;20050;-87
2022/07/31 09:13:23;;;;;;;2.42;0.90;;;23.60;48.20;;;;;;4110848;28;20034;-87
2022/07/31 09:15:44;;;;;;;4.70;1.30;;;23.60;48.10;;;;;;4126527;28;20030;-86
2022/07/31 09:18:16;;;;;;;8.77;1.73;;;23.70;48.30;;;;;;4125397;28;20109;-86
2022/07/31 09:20:19;;;;;;;1.75;1.00;;;23.70;47.80;;;;;;4092645;28;20046;-86
2022/07/31 09:22:40;;;;;;;8.13;1.00;;;23.70;47.50;;;;;;4129410;28;20069;-87
2022/07/31 09:25:15;;;;;;;2.90;0.90;;;23.70;48.10;;;;;;4128978;28;20525;-86
2022/07/31 09:27:35;;;;;;;3.05;0.90;;;23.80;48.00;;;;;;4119738;28;20070;-88
2022/07/31 09:29:56;;;;;;;2.17;0.98;;;23.80;48.00;;;;;;4113366;28;20046;-87
2022/07/31 09:32:20;;;;;;;2.83;0.98;;;23.80;48.50;;;;;;4123224;28;20061;-88
2022/07/31 09:34:41;;;;;;;4.13;0.88;;;23.90;49.00;;;;;;4112023;28;20098;-87
2022/07/31 09:36:48;;;;;;;2.88;0.80;;;23.90;48.90;;;;;;4098860;28;20038;-85
2022/07/31 09:39:14;;;;;;;5.03;1.00;;;23.90;48.10;;;;;;4125001;28;20045;-86
2022/07/31 09:41:35;;;;;;;2.88;0.70;;;24.00;47.40;;;;;;4119916;28;20046;-86
2022/07/31 09:43:59;;;;;;;3.03;0.85;;;24.00;47.80;;;;;;4109076;28;20043;-86
2022/07/31 09:46:20;;;;;;;4.00;0.90;;;24.10;47.80;;;;;;4112910;28;20043;-86
2022/07/31 09:48:50;;;;;;;3.95;1.15;;;24.10;47.70;;;;;;4113915;28;20039;-86
2022/07/31 09:51:00;;;;;;;2.67;0.80;;;24.20;46.90;;;;;;4128710;28;20045;-87
2022/07/31 09:53:21;;;;;;;4.30;1.02;;;24.20;46.80;;;;;;4116795;28;20031;-86
2022/07/31 09:55:51;;;;;;;6.32;0.90;;;24.20;46.60;;;;;;4129178;28;20038;-86
2022/07/31 09:58:12;;;;;;;3.10;0.85;;;24.30;46.90;;;;;;4133341;28;20073;-86
2022/07/31 10:00:33;;;;;;;3.85;0.95;;;24.30;46.80;;;;;;4115642;28;20098;-87
2022/07/31 10:02:55;;;;;;;1.33;0.70;;;24.40;46.70;;;;;;4128701;28;20034;-87
2022/07/31 10:05:17;;;;;;;9.75;0.90;;;24.40;47.10;;;;;;4129422;28;20036;-87
2022/07/31 10:07:39;;;;;;;3.35;0.70;;;24.40;46.80;;;;;;4125845;28;20061;-86
2022/07/31 10:10:01;;;;;;;3.40;0.90;;;24.40;46.80;;;;;;4130719;28;20030;-87
2022/07/31 10:12:22;;;;;;;4.70;1.00;;;24.50;46.70;;;;;;4114901;28;20034;-85
2022/07/31 10:14:45;;;;;;;3.05;0.95;;;24.60;47.10;;;;;;4116115;28;20034;-84
2022/07/31 10:17:08;;;;;;;2.60;0.90;;;24.60;46.90;;;;;;4113871;28;20030;-86
2022/07/31 10:19:35;;;;;;;4.72;0.90;;;24.70;46.80;;;;;;4112063;28;20037;-86
2022/07/31 10:22:00;;;;;;;3.70;0.93;;;24.80;46.50;;;;;;4131397;28;20041;-87
2022/07/31 10:24:22;;;;;;;4.55;1.00;;;24.80;46.40;;;;;;4128141;28;20030;-86
2022/07/31 10:26:43;;;;;;;10.38;1.08;;;24.90;46.40;;;;;;4128670;28;20069;-90
2022/07/31 10:29:04;;;;;;;2.97;1.20;;;24.90;45.80;;;;;;4128559;28;20129;-86
2022/07/31 10:31:25;;;;;;;2.40;1.05;;;25.00;45.70;;;;;;4129246;28;20080;-86
2022/07/31 10:33:28;;;;;;;2.95;0.90;;;25.10;45.70;;;;;;4132728;28;20022;-86
2022/07/31 10:35:29;;;;;;;5.15;2.28;;;25.10;46.00;;;;;;4129446;28;20058;-86
2022/07/31 10:37:39;;;;;;;4.47;1.17;;;25.20;46.10;;;;;;4094418;28;20429;-86
2022/07/31 10:39:48;;;;;;;3.08;1.10;;;25.20;45.90;;;;;;4130319;28;20030;-86
2022/07/31 10:41:52;;;;;;;6.97;1.10;;;25.30;45.00;;;;;;4116290;28;20054;-86
2022/07/31 10:43:59;;;;;;;4.82;1.20;;;25.30;45.50;;;;;;4102697;28;20790;-86
2022/07/31 10:46:01;;;;;;;3.58;1.00;;;25.40;45.70;;;;;;4133057;28;20018;-87
2022/07/31 10:48:09;;;;;;;4.72;1.40;;;25.40;45.60;;;;;;4127626;28;20030;-86
2022/07/31 10:50:22;;;;;;;2.80;1.00;;;25.50;45.00;;;;;;4115542;28;20807;-85
2022/07/31 10:52:30;;;;;;;7.07;1.33;;;25.50;44.80;;;;;;4145397;28;20014;-85
2022/07/31 10:54:38;;;;;;;2.08;1.02;;;25.60;44.80;;;;;;4129651;28;20040;-85
2022/07/31 10:56:43;;;;;;;2.38;0.98;;;25.70;44.70;;;;;;4117488;28;20031;-85
2022/07/31 10:58:52;;;;;;;5.63;1.27;;;25.70;45.00;;;;;;4124740;28;20149;-85
2022/07/31 11:01:07;;;;;;;3.63;1.10;;;25.70;44.30;;;;;;4098180;28;20031;-85
2022/07/31 11:03:15;;;;;;;1.67;0.88;;;25.80;44.70;;;;;;4135824;28;20034;-85
2022/07/31 11:05:21;;;;;;;8.90;1.15;;;25.90;45.00;;;;;;4115879;28;20068;-85
2022/07/31 11:07:24;;;;;;;3.03;1.10;;;25.90;44.70;;;;;;4113099;28;20542;-86
2022/07/31 11:09:29;;;;;;;2.63;1.13;;;26.00;44.60;;;;;;4127656;28;20022;-87